Clyde — V7YA3 — position and weather

sailwx.info

Track history (hours):
 
Tides and Currents Weather Stations Pressure Air Temp Water Temp Dewpoint Dewpoint Depression Visibility Wind Speed Wind Dir Waves Ship Positions

Clyde

Last reported at 2018-May-10 12:20 UTC. Time now 2018-Jun-22 01:56 UTC.
Position N 34°43' E 026°43'.
Warning: this ship's position is 42 days out of date.

Length 222 m; draft 10.6 m.

Type: Ship (hazmat cat A). MMSI: 538004613.

Date/timePositionNaut miles runAvg speedWind from/ knotsBaromVisibWave heightAir tempDewpointWater temp
2018-May-10 12:20N 34°43' E 026°43'0 0.2
2018-May-10 12:00N 34°43' E 026°43'  
2018-May-03 12:04N 36°25' E 014°41'115.6
2018-May-03 12:00N 36°25' E 014°40'815.6
2018-May-03 11:29N 36°27' E 014°30'715.5
2018-May-03 11:00N 36°28' E 014°21'815.4
2018-May-03 10:30N 36°30' E 014°11'715.3
2018-May-03 10:00N 36°33' E 014°03'815.2
2018-May-03 09:30N 36°36' E 013°54'815.2
2018-May-03 09:00N 36°38' E 013°45'1314.9
2018-May-03 08:07N 36°42' E 013°29'  
2018-Apr-30 17:46N 36°03' W 005°15'2 6.6
2018-Apr-30 17:31N 36°03' W 005°17'2 3.2
2018-Apr-30 17:00N 36°03' W 005°19'2 3.4
2018-Apr-30 16:30N 36°02' W 005°21'3 6.9
2018-Apr-30 16:00N 35°59' W 005°23'4 8.6
2018-Apr-30 15:30N 35°58' W 005°28'  
Track history (hours):
 
Tides and Currents Weather Stations Pressure Air Temp Water Temp Dewpoint Dewpoint Depression Visibility Wind Speed Wind Dir Waves Ship Positions

Clyde

Last reported at 2018-May-10 12:20 UTC. Time now 2018-Jun-22 01:56 UTC.
Position N 34°43' E 026°43'.
Warning: this ship's position is 42 days out of date.

Length 222 m; draft 10.6 m.

Type: Ship (hazmat cat A). MMSI: 538004613.

Date/timePositionNaut miles runAvg speedWind from/ knotsBaromVisibWave heightAir tempDewpointWater temp
2018-May-10 12:20N 34°43' E 026°43'0 0.2
2018-May-10 12:00N 34°43' E 026°43'  
2018-May-03 12:04N 36°25' E 014°41'115.6
2018-May-03 12:00N 36°25' E 014°40'815.6
2018-May-03 11:29N 36°27' E 014°30'715.5
2018-May-03 11:00N 36°28' E 014°21'815.4
2018-May-03 10:30N 36°30' E 014°11'715.3
2018-May-03 10:00N 36°33' E 014°03'815.2
2018-May-03 09:30N 36°36' E 013°54'815.2
2018-May-03 09:00N 36°38' E 013°45'1314.9
2018-May-03 08:07N 36°42' E 013°29'  
2018-Apr-30 17:46N 36°03' W 005°15'2 6.6
2018-Apr-30 17:31N 36°03' W 005°17'2 3.2
2018-Apr-30 17:00N 36°03' W 005°19'2 3.4
2018-Apr-30 16:30N 36°02' W 005°21'3 6.9
2018-Apr-30 16:00N 35°59' W 005°23'4 8.6
2018-Apr-30 15:30N 35°58' W 005°28'  

Dump ship's entire track history